Normandie — FNNO — position and weather

sailwx.info

Track history (hours):
 
Tides and Currents Weather Stations Pressure Air Temp Water Temp Dewpoint Dewpoint Depression Visibility Wind Speed Wind Dir Waves Ship Positions

Normandie

Operator: Brittany Ferries

Last reported at 2019-Sep-21 00:30 UTC. Time now 2019-Sep-21 00:59 UTC.
Position N 49°47' W 000°34'.

Length 161 m; beam 27 m.

Type: Ship. MMSI: 227273000.

Date/timePositionNaut miles runAvg speedWind from/ knotsBaromVisibWave heightAir tempDewpointWater temp
2019-Sep-21 00:30N 49°47' W 000°34'510.1
2019-Sep-21 00:00N 49°43' W 000°30'510.2
2019-Sep-20 23:31N 49°39' W 000°25'510.4
2019-Sep-20 23:00N 49°34' W 000°22'510.4
2019-Sep-20 22:31N 49°29' W 000°19'510.4
2019-Sep-20 22:01N 49°24' W 000°16'510.6
2019-Sep-20 21:31N 49°19' W 000°15'2 3.3
2019-Sep-20 21:01N 49°17' W 000°15'0 0.0
2019-Sep-20 20:31N 49°17' W 000°15'0 0.0
2019-Sep-20 20:01N 49°17' W 000°15'0 0.2
2019-Sep-20 19:31N 49°17' W 000°15'612.1
2019-Sep-20 19:01N 49°23' W 000°12'713.7
2019-Sep-20 18:31N 49°29' W 000°18'919.0
2019-Sep-20 18:01N 49°38' W 000°24'918.8
2019-Sep-20 17:30N 49°46' W 000°29'918.7
2019-Sep-20 17:01N 49°55' W 000°35'918.6
2019-Sep-20 16:31N 50°03' W 000°41'918.3
2019-Sep-20 16:01N 50°12' W 000°46'918.3
2019-Sep-20 15:30N 50°21' W 000°49'1318.8
2019-Sep-20 14:48N 50°33' W 000°56'618.3
2019-Sep-20 14:29N 50°39' W 000°59'817.0
2019-Sep-20 14:01N 50°46' W 001°05'3 5.8
2019-Sep-20 13:30N 50°49' W 001°06'0 0.0
2019-Sep-20 13:00N 50°49' W 001°06'0 0.0
2019-Sep-20 12:30N 50°49' W 001°06'0 0.2
2019-Sep-20 12:00N 50°49' W 001°06'5 9.7
2019-Sep-20 11:30N 50°44' W 001°04'918.4
2019-Sep-20 11:00N 50°36' W 000°58'2319.2
2019-Sep-20 09:50N 50°15' W 000°43'919.5
2019-Sep-20 09:24N 50°07' W 000°39'819.5
2019-Sep-20 09:00N 49°60' W 000°35'1019.6
2019-Sep-20 08:30N 49°50' W 000°31'1019.8
2019-Sep-20 08:00N 49°41' W 000°26'1019.8
2019-Sep-20 07:30N 49°32' W 000°21'1020.0
2019-Sep-20 07:01N 49°22' W 000°15'510.0
2019-Sep-20 06:31N 49°17' W 000°15'0 0.0
2019-Sep-20 06:01N 49°17' W 000°15'0 0.0
2019-Sep-20 05:31N 49°17' W 000°15'0 0.0
2019-Sep-20 05:01N 49°17' W 000°15'0 0.2
2019-Sep-20 04:31N 49°17' W 000°15'815.3
2019-Sep-20 04:01N 49°25' W 000°15'816.9
2019-Sep-20 03:31N 49°33' W 000°20'815.1
2019-Sep-20 03:00N 49°40' W 000°24'815.1
2019-Sep-20 02:31N 49°47' W 000°29'815.2
2019-Sep-20 02:00N 49°54' W 000°34'1915.1
2019-Sep-20 00:43N 50°11' W 000°47'1014.4
2019-Sep-20 00:02N 50°21' W 000°47'114.4
2019-Sep-19 23:59N 50°22' W 000°47'1115.3
2019-Sep-19 23:16N 50°32' W 000°54'415.3
2019-Sep-19 23:00N 50°35' W 000°57'714.8
2019-Sep-19 22:31N 50°42' W 001°02'713.6
2019-Sep-19 22:00N 50°48' W 001°07'1 1.9
2019-Sep-19 21:30N 50°49' W 001°06'0 0.0
2019-Sep-19 21:00N 50°49' W 001°06'0 0.0
2019-Sep-19 20:30N 50°49' W 001°06'1 2.5
2019-Sep-19 20:00N 50°48' W 001°07'715.0
2019-Sep-19 19:31N 50°42' W 000°58'4319.7
2019-Sep-19 17:20N 50°01' W 000°40'720.4
2019-Sep-19 17:00N 49°55' W 000°36'1020.3
2019-Sep-19 16:30N 49°46' W 000°30'1020.2
2019-Sep-19 16:00N 49°36' W 000°24'1019.8
2019-Sep-19 15:31N 49°27' W 000°18'918.3
2019-Sep-19 15:00N 49°18' W 000°15'1 2.1
2019-Sep-19 14:30N 49°17' W 000°15'0 0.0
2019-Sep-19 14:01N 49°17' W 000°15'0 0.0
2019-Sep-19 13:31N 49°17' W 000°15'0 0.0
2019-Sep-19 13:01N 49°17' W 000°15'3 5.9
2019-Sep-19 12:30N 49°20' W 000°14'917.9
2019-Sep-19 12:01N 49°29' W 000°18'917.9
2019-Sep-19 11:31N 49°37' W 000°23'918.7
2019-Sep-19 11:01N 49°46' W 000°28'1019.1
2019-Sep-19 10:30N 49°55' W 000°34'2219.2
2019-Sep-19 09:22N 50°15' W 000°49'1818.5
2019-Sep-19 08:24N 50°31' W 000°58'718.0
2019-Sep-19 08:00N 50°39' W 000°58'715.0
2019-Sep-19 07:31N 50°45' W 001°05'4 7.8
2019-Sep-19 07:00N 50°49' W 001°06'0 0.0
2019-Sep-19 06:30N 50°49' W 001°06'0 0.0
2019-Sep-19 06:00N 50°49' W 001°06'0 0.2
2019-Sep-19 05:30N 50°49' W 001°06'5 9.8
2019-Sep-19 05:00N 50°44' W 001°04'714.4
2019-Sep-19 04:30N 50°38' W 000°58'815.2
2019-Sep-19 04:00N 50°30' W 000°55'3612.7
2019-Sep-19 01:10N 49°57' W 000°35'210.6
2019-Sep-19 00:58N 49°55' W 000°34'510.5
2019-Sep-19 00:30N 49°50' W 000°30'510.4
2019-Sep-19 00:00N 49°46' W 000°27'510.4
2019-Sep-18 23:30N 49°41' W 000°24'510.5
2019-Sep-18 23:00N 49°36' W 000°21'510.6
2019-Sep-18 22:31N 49°31' W 000°20'510.2
2019-Sep-18 22:01N 49°26' W 000°17'510.0
2019-Sep-18 21:31N 49°21' W 000°15'4 7.6
2019-Sep-18 21:00N 49°17' W 000°15'0 0.0
2019-Sep-18 20:30N 49°17' W 000°15'0 0.0
2019-Sep-18 20:00N 49°17' W 000°15'0 0.0
2019-Sep-18 19:30N 49°17' W 000°15'0 0.0
2019-Sep-18 19:00N 49°17' W 000°15'0 0.0
2019-Sep-18 18:30N 49°17' W 000°15'0 0.0
2019-Sep-18 18:00N 49°17' W 000°15'0 0.0
2019-Sep-18 17:30N 49°17' W 000°15'0 0.0
2019-Sep-18 17:00N 49°17' W 000°15'0 0.0
2019-Sep-18 16:30N 49°17' W 000°15'0 0.0
2019-Sep-18 16:01N 49°17' W 000°15'0 0.0
2019-Sep-18 15:30N 49°17' W 000°15'0 0.0
2019-Sep-18 15:00N 49°17' W 000°15'0 0.0
2019-Sep-18 14:30N 49°17' W 000°15'0 0.0
2019-Sep-18 14:00N 49°17' W 000°15'0 0.0
2019-Sep-18 13:30N 49°17' W 000°15'0 0.0
2019-Sep-18 13:00N 49°17' W 000°15'4 7.3
2019-Sep-18 12:31N 49°21' W 000°15'917.5
2019-Sep-18 12:01N 49°30' W 000°16'917.5
2019-Sep-18 11:31N 49°37' W 000°23'918.7
2019-Sep-18 11:01N 49°46' W 000°28'1019.8
2019-Sep-18 10:30N 49°56' W 000°33'2020.0
2019-Sep-18 09:32N 50°14' W 000°43'119.7
2019-Sep-18 09:30N 50°14' W 000°44'1920.0
2019-Sep-18 08:34N 50°32' W 000°54'120.2
2019-Sep-18 08:30N 50°33' W 000°55'918.5
2019-Sep-18 08:00N 50°42' W 000°58'815.1
2019-Sep-18 07:30N 50°47' W 001°07'1 2.8
2019-Sep-18 07:00N 50°49' W 001°06'0 0.0
2019-Sep-18 06:30N 50°49' W 001°06'0 0.0
2019-Sep-18 06:00N 50°49' W 001°06'0 0.3
2019-Sep-18 05:31N 50°49' W 001°06'510.3
2019-Sep-18 05:00N 50°44' W 001°03'714.0
2019-Sep-18 04:31N 50°38' W 000°58'815.0
2019-Sep-18 04:00N 50°31' W 000°54'1115.0
2019-Sep-18 03:18N 50°21' W 000°48'1313.7
2019-Sep-18 02:22N 50°08' W 000°45'1011.8
2019-Sep-18 01:31N 49°59' W 000°39'012.0
2019-Sep-18 01:30N 49°59' W 000°39'510.9
2019-Sep-18 01:00N 49°54' W 000°35'510.6
2019-Sep-18 00:30N 49°49' W 000°31'510.4
2019-Sep-18 00:00N 49°44' W 000°28'510.4
2019-Sep-17 23:30N 49°40' W 000°24'510.4
2019-Sep-17 23:00N 49°35' W 000°21'510.1
2019-Sep-17 22:30N 49°30' W 000°18'510.6
2019-Sep-17 22:00N 49°25' W 000°16'510.2
2019-Sep-17 21:30N 49°20' W 000°15'3 5.8
2019-Sep-17 21:00N 49°17' W 000°15'0 0.0
2019-Sep-17 20:30N 49°17' W 000°15'0 0.0
2019-Sep-17 20:00N 49°17' W 000°15'0 0.0
2019-Sep-17 19:30N 49°17' W 000°15'4 7.2
2019-Sep-17 19:00N 49°21' W 000°14'917.5
2019-Sep-17 18:30N 49°29' W 000°17'917.6
2019-Sep-17 18:00N 49°38' W 000°22'918.5
2019-Sep-17 17:30N 49°47' W 000°25'1518.2
2019-Sep-17 16:42N 50°00' W 000°33'3318.2
2019-Sep-17 14:54N 50°31' W 000°53'818.4
2019-Sep-17 14:30N 50°38' W 000°58'817.2
2019-Sep-17 14:00N 50°45' W 001°05'4 8.0
2019-Sep-17 13:31N 50°49' W 001°06'0 0.0
2019-Sep-17 13:01N 50°49' W 001°06'0 0.0
2019-Sep-17 12:31N 50°49' W 001°06'1 1.8
2019-Sep-17 12:00N 50°48' W 001°07'816.1
2019-Sep-17 11:30N 50°41' W 001°00'1019.6
2019-Sep-17 11:00N 50°32' W 000°56'1019.2
2019-Sep-17 10:29N 50°22' W 000°52'1719.1
2019-Sep-17 09:36N 50°06' W 000°45'918.1
2019-Sep-17 09:07N 49°58' W 000°40'217.9
2019-Sep-17 08:59N 49°56' W 000°39'917.8
2019-Sep-17 08:30N 49°48' W 000°32'918.1
2019-Sep-17 08:00N 49°40' W 000°25'918.5
2019-Sep-17 07:30N 49°32' W 000°18'918.6
2019-Sep-17 07:00N 49°23' W 000°17'611.6
2019-Sep-17 06:30N 49°17' W 000°15'0 0.0
2019-Sep-17 06:00N 49°17' W 000°15'0 0.0
2019-Sep-17 05:30N 49°17' W 000°15'0 0.0
2019-Sep-17 05:00N 49°17' W 000°15'0 0.3
2019-Sep-17 04:31N 49°17' W 000°15'713.5
2019-Sep-17 04:01N 49°24' W 000°16'815.2
2019-Sep-17 03:31N 49°30' W 000°22'714.9
2019-Sep-17 03:01N 49°37' W 000°27'714.4
2019-Sep-17 02:30N 49°43' W 000°32'714.6
2019-Sep-17 02:01N 49°50' W 000°36'815.1
2019-Sep-17 01:28N 49°58' W 000°40'715.5
2019-Sep-17 01:00N 50°05' W 000°43'815.7
2019-Sep-17 00:30N 50°12' W 000°46'2115.9
2019-Sep-16 23:12N 50°32' W 000°56'315.6
2019-Sep-16 23:01N 50°35' W 000°57'815.0
2019-Sep-16 22:31N 50°42' W 001°01'713.3
2019-Sep-16 22:00N 50°48' W 001°07'1 2.2
2019-Sep-16 21:30N 50°49' W 001°06'0 0.0
2019-Sep-16 21:00N 50°49' W 001°06'0 0.0
2019-Sep-16 20:30N 50°49' W 001°06'1 2.2
2019-Sep-16 20:00N 50°48' W 001°07'714.3
2019-Sep-16 19:31N 50°43' W 000°59'1119.1
2019-Sep-16 18:56N 50°32' W 000°59'819.5
2019-Sep-16 18:30N 50°24' W 000°56'1018.5
2019-Sep-16 17:59N 50°15' W 000°49'918.7
2019-Sep-16 17:30N 50°07' W 000°43'1019.0
2019-Sep-16 16:58N 49°57' W 000°37'919.0
2019-Sep-16 16:30N 49°49' W 000°32'1019.2
2019-Sep-16 16:01N 49°40' W 000°27'1019.0
2019-Sep-16 15:30N 49°32' W 000°20'1019.1
2019-Sep-16 15:01N 49°23' W 000°16'510.8
2019-Sep-16 14:30N 49°17' W 000°15'0 0.0
2019-Sep-16 14:00N 49°17' W 000°15'0 0.0
2019-Sep-16 13:30N 49°17' W 000°15'0 0.0
2019-Sep-16 13:00N 49°17' W 000°15'3 6.8
2019-Sep-16 12:30N 49°21' W 000°14'918.6
2019-Sep-16 12:00N 49°29' W 000°20'918.7
2019-Sep-16 11:30N 49°38' W 000°25'919.0
2019-Sep-16 11:00N 49°47' W 000°31'1019.4
2019-Sep-16 10:30N 49°55' W 000°39'1019.4
2019-Sep-16 10:00N 50°04' W 000°45'1019.4
2019-Sep-16 09:30N 50°13' W 000°50'2018.8
2019-Sep-16 08:25N 50°33' W 000°57'818.6
2019-Sep-16 08:00N 50°40' W 001°01'816.1
2019-Sep-16 07:30N 50°47' W 001°07'1 2.6
2019-Sep-16 07:01N 50°49' W 001°06'0 0.0
2019-Sep-16 06:31N 50°49' W 001°06'0 0.0
2019-Sep-16 06:00N 50°49' W 001°06'1 1.9
2019-Sep-16 05:31N 50°48' W 001°07'612.6
2019-Sep-16 05:00N 50°43' W 001°01'713.9
2019-Sep-16 04:30N 50°36' W 000°58'714.3
2019-Sep-16 04:00N 50°30' W 000°54'611.3
2019-Sep-16 03:30N 50°24' W 000°51'611.2
2019-Sep-16 03:00N 50°19' W 000°48'611.5
2019-Sep-16 02:30N 50°13' W 000°46'612.2
2019-Sep-16 02:00N 50°08' W 000°42'612.0
2019-Sep-16 01:30N 50°02' W 000°38'611.2
2019-Sep-16 01:00N 49°57' W 000°35'511.0
2019-Sep-16 00:30N 49°52' W 000°32'510.9
2019-Sep-16 00:00N 49°47' W 000°29'510.6
2019-Sep-15 23:30N 49°42' W 000°27'510.3
2019-Sep-15 23:00N 49°37' W 000°24'510.2
2019-Sep-15 22:30N 49°32' W 000°20'510.2
2019-Sep-15 22:00N 49°28' W 000°18'510.2
2019-Sep-15 21:30N 49°23' W 000°16'5 9.9
2019-Sep-15 21:00N 49°18' W 000°15'0 0.8
2019-Sep-15 20:30N 49°17' W 000°15'0 0.0
2019-Sep-15 20:00N 49°17' W 000°15'0 0.0
2019-Sep-15 19:30N 49°17' W 000°15'510.1
2019-Sep-15 19:00N 49°22' W 000°15'1020.0
2019-Sep-15 18:30N 49°31' W 000°23'1020.1
2019-Sep-15 18:00N 49°40' W 000°30'1019.9
2019-Sep-15 17:30N 49°49' W 000°35'1019.6
2019-Sep-15 17:00N 49°59' W 000°39'1019.8
2019-Sep-15 16:30N 50°09' W 000°40'917.4
2019-Sep-15 16:00N 50°16' W 000°46'918.2
2019-Sep-15 15:30N 50°25' W 000°52'918.0
2019-Sep-15 15:00N 50°33' W 000°56'917.6
2019-Sep-15 14:30N 50°42' W 001°02'714.5
2019-Sep-15 14:00N 50°48' W 001°07'1 2.0
2019-Sep-15 13:30N 50°49' W 001°06'0 0.0
2019-Sep-15 13:00N 50°49' W 001°06'0 0.0
2019-Sep-15 12:30N 50°49' W 001°06'2 3.0
2019-Sep-15 12:00N 50°47' W 001°06'917.6
2019-Sep-15 11:31N 50°40' W 000°59'1019.8
2019-Sep-15 11:00N 50°30' W 000°54'1019.5
2019-Sep-15 10:30N 50°21' W 000°49'1019.7
2019-Sep-15 10:00N 50°12' W 000°46'1019.5
2019-Sep-15 09:30N 50°02' W 000°43'918.8
2019-Sep-15 09:00N 49°53' W 000°40'918.3
2019-Sep-15 08:30N 49°44' W 000°35'918.3
2019-Sep-15 08:00N 49°36' W 000°28'918.3
2019-Sep-15 07:30N 49°28' W 000°21'917.8
2019-Sep-15 07:00N 49°20' W 000°15'3 6.3
2019-Sep-15 06:30N 49°17' W 000°15'0 0.0
2019-Sep-15 06:00N 49°17' W 000°15'0 0.0
2019-Sep-15 05:30N 49°17' W 000°15'0 0.0
2019-Sep-15 05:00N 49°17' W 000°15'0 0.1
2019-Sep-15 04:30N 49°17' W 000°15'714.0
2019-Sep-15 04:00N 49°24' W 000°16'816.7
2019-Sep-15 03:30N 49°32' W 000°22'816.7
2019-Sep-15 03:00N 49°39' W 000°28'816.5
2019-Sep-15 02:30N 49°46' W 000°33'816.1
2019-Sep-15 02:00N 49°54' W 000°39'816.1
2019-Sep-15 01:30N 50°01' W 000°45'816.4
2019-Sep-15 01:00N 50°08' W 000°52'714.9
2019-Sep-15 00:30N 50°15' W 000°52'815.8
2019-Sep-15 00:00N 50°23' W 000°52'815.9
2019-Sep-14 23:30N 50°31' W 000°55'815.6
2019-Sep-14 23:01N 50°38' W 000°58'714.7
2019-Sep-14 22:30N 50°45' W 001°05'4 8.5
2019-Sep-14 22:01N 50°49' W 001°06'0 0.0
2019-Sep-14 21:31N 50°49' W 001°06'0 0.0
2019-Sep-14 21:01N 50°49' W 001°06'0 0.1
2019-Sep-14 20:30N 50°49' W 001°06'4 8.0
2019-Sep-14 20:01N 50°45' W 001°05'917.4
2019-Sep-14 19:31N 50°37' W 000°58'919.0
2019-Sep-14 19:01N 50°28' W 000°54'1019.1
2019-Sep-14 18:30N 50°19' W 000°52'917.7
2019-Sep-14 18:01N 50°10' W 000°50'918.3
2019-Sep-14 17:31N 50°01' W 000°45'918.5
2019-Sep-14 17:01N 49°52' W 000°40'918.6
2019-Sep-14 16:31N 49°44' W 000°35'918.7
2019-Sep-14 16:01N 49°36' W 000°28'918.8
2019-Sep-14 15:30N 49°28' W 000°20'917.9
2019-Sep-14 15:01N 49°20' W 000°15'2 4.4
2019-Sep-14 14:30N 49°17' W 000°15'0 0.0
2019-Sep-14 14:00N 49°17' W 000°15'0 0.0
2019-Sep-14 13:30N 49°17' W 000°15'0 0.0
2019-Sep-14 13:00N 49°17' W 000°15'3 5.7
2019-Sep-14 12:31N 49°20' W 000°14'918.5
2019-Sep-14 12:01N 49°29' W 000°20'1019.2
2019-Sep-14 11:31N 49°38' W 000°24'1019.3
2019-Sep-14 11:00N 49°47' W 000°31'1019.7
2019-Sep-14 10:30N 49°56' W 000°38'1119.9
2019-Sep-14 09:59N 50°05' W 000°44'1019.8
2019-Sep-14 09:30N 50°14' W 000°49'1119.5
2019-Sep-14 08:56N 50°25' W 000°54'919.7
2019-Sep-14 08:29N 50°33' W 000°57'918.3
2019-Sep-14 08:01N 50°42' W 000°58'815.8
2019-Sep-14 07:30N 50°48' W 001°07'1 2.3
2019-Sep-14 07:01N 50°49' W 001°06'0 0.0
2019-Sep-14 06:31N 50°49' W 001°06'0 0.0
2019-Sep-14 06:01N 50°49' W 001°06'0 0.4
2019-Sep-14 05:31N 50°49' W 001°06'510.8
2019-Sep-14 05:01N 50°44' W 001°03'713.4
2019-Sep-14 04:31N 50°38' W 000°58'815.1
2019-Sep-14 04:00N 50°31' W 000°55'1613.3
2019-Sep-14 02:46N 50°15' W 000°47'311.8
2019-Sep-14 02:29N 50°12' W 000°45'611.7
2019-Sep-14 01:58N 50°06' W 000°43'611.8
2019-Sep-14 01:30N 50°01' W 000°39'611.7
2019-Sep-14 01:00N 49°55' W 000°36'611.6
2019-Sep-14 00:31N 49°50' W 000°32'510.8
2019-Sep-14 00:00N 49°45' W 000°30'511.0
2019-Sep-13 23:31N 49°40' W 000°28'510.6
2019-Sep-13 23:01N 49°35' W 000°25'510.6
2019-Sep-13 22:30N 49°30' W 000°21'510.6
2019-Sep-13 22:01N 49°25' W 000°18'510.5
2019-Sep-13 21:31N 49°20' W 000°14'3 6.1
2019-Sep-13 21:00N 49°17' W 000°15'0 0.0
2019-Sep-13 20:30N 49°17' W 000°15'0 0.0
2019-Sep-13 20:00N 49°17' W 000°15'0 0.0
2019-Sep-13 19:30N 49°17' W 000°15'4 7.0
2019-Sep-13 19:00N 49°21' W 000°14'918.5
2019-Sep-13 18:30N 49°29' W 000°20'918.7
2019-Sep-13 18:00N 49°37' W 000°27'918.5
2019-Sep-13 17:30N 49°46' W 000°32'1018.0
2019-Sep-13 16:59N 49°55' W 000°38'1017.7
2019-Sep-13 16:25N 50°04' W 000°43'717.6
2019-Sep-13 16:01N 50°11' W 000°47'917.7
2019-Sep-13 15:28N 50°20' W 000°52'1017.8
2019-Sep-13 14:56N 50°29' W 000°57'817.8
2019-Sep-13 14:30N 50°37' W 000°58'917.0
2019-Sep-13 14:00N 50°44' W 001°04'5 9.1
2019-Sep-13 13:30N 50°49' W 001°06'0 0.0
2019-Sep-13 13:00N 50°49' W 001°06'0 0.0
2019-Sep-13 12:30N 50°49' W 001°06'0 0.9
2019-Sep-13 12:01N 50°49' W 001°07'510.7
2019-Sep-13 11:31N 50°44' W 001°03'1019.0
2019-Sep-13 11:00N 50°35' W 000°58'1019.5
2019-Sep-13 10:30N 50°25' W 000°55'1819.4
2019-Sep-13 09:35N 50°08' W 000°49'219.1
2019-Sep-13 09:30N 50°06' W 000°48'918.9
2019-Sep-13 09:00N 49°58' W 000°42'918.9
2019-Sep-13 08:30N 49°49' W 000°37'918.7
2019-Sep-13 08:00N 49°40' W 000°31'918.8
2019-Sep-13 07:30N 49°32' W 000°24'918.6
2019-Sep-13 07:00N 49°24' W 000°17'713.4
2019-Sep-13 06:30N 49°17' W 000°15'0 0.0
2019-Sep-13 06:00N 49°17' W 000°15'0 0.0
2019-Sep-13 05:30N 49°17' W 000°15'0 0.0
2019-Sep-13 05:00N 49°17' W 000°15'0 0.2
2019-Sep-13 04:30N 49°17' W 000°15'713.5
2019-Sep-13 04:00N 49°24' W 000°16'816.0
2019-Sep-13 03:30N 49°31' W 000°21'816.6
2019-Sep-13 03:00N 49°39' W 000°25'816.5
2019-Sep-13 02:30N 49°47' W 000°30'2315.8
2019-Sep-13 01:04N 50°08' W 000°42'1315.0
2019-Sep-13 00:10N 50°21' W 000°49'1115.3
2019-Sep-12 23:27N 50°31' W 000°55'715.2
2019-Sep-12 23:00N 50°38' W 000°58'714.8
2019-Sep-12 22:30N 50°44' W 001°04'5 9.7
2019-Sep-12 22:01N 50°49' W 001°06'0 0.1
2019-Sep-12 21:31N 50°49' W 001°06'0 0.0
2019-Sep-12 21:01N 50°49' W 001°06'0 0.2
2019-Sep-12 20:31N 50°49' W 001°06'5 9.5
2019-Sep-12 20:01N 50°44' W 001°04'918.4
2019-Sep-12 19:31N 50°36' W 000°56'918.4
2019-Sep-12 19:01N 50°28' W 000°50'1719.1
2019-Sep-12 18:08N 50°12' W 000°42'318.8
2019-Sep-12 18:00N 50°10' W 000°41'1019.1
2019-Sep-12 17:30N 50°01' W 000°36'919.1
2019-Sep-12 17:01N 49°52' W 000°31'1019.3
2019-Sep-12 16:31N 49°43' W 000°26'1019.4
2019-Sep-12 16:01N 49°34' W 000°21'1019.5
2019-Sep-12 15:31N 49°24' W 000°17'714.0
2019-Sep-12 15:00N 49°17' W 000°15'0 0.1
2019-Sep-12 14:30N 49°17' W 000°15'0 0.0
2019-Sep-12 14:00N 49°17' W 000°15'0 0.0
2019-Sep-12 13:30N 49°17' W 000°15'0 0.0
2019-Sep-12 13:00N 49°17' W 000°15'3 5.9
2019-Sep-12 12:31N 49°20' W 000°14'918.5
2019-Sep-12 12:00N 49°29' W 000°19'1019.0
2019-Sep-12 11:30N 49°38' W 000°25'919.1
2019-Sep-12 11:01N 49°47' W 000°30'1019.5
2019-Sep-12 10:30N 49°56' W 000°35'1019.8
2019-Sep-12 10:00N 50°05' W 000°41'1519.3
2019-Sep-12 09:15N 50°19' W 000°46'1019.8
2019-Sep-12 08:46N 50°28' W 000°52'519.9
2019-Sep-12 08:30N 50°33' W 000°55'918.8
2019-Sep-12 08:01N 50°41' W 001°00'815.3
2019-Sep-12 07:31N 50°48' W 001°07'1 2.0
2019-Sep-12 07:01N 50°49' W 001°06'0 0.0
2019-Sep-12 06:31N 50°49' W 001°06'0 0.0
2019-Sep-12 06:01N 50°49' W 001°06'0 0.8
2019-Sep-12 05:31N 50°49' W 001°06'611.9
2019-Sep-12 05:00N 50°44' W 001°02'714.4
2019-Sep-12 04:30N 50°37' W 000°58'815.1
2019-Sep-12 04:00N 50°29' W 000°55'714.3
2019-Sep-12 03:30N 50°23' W 000°51'1211.1
2019-Sep-12 02:26N 50°11' W 000°46'811.4
2019-Sep-12 01:45N 50°04' W 000°42'311.6
2019-Sep-12 01:30N 50°01' W 000°40'611.9
2019-Sep-12 01:00N 49°56' W 000°36'611.8
2019-Sep-12 00:30N 49°51' W 000°31'611.8
2019-Sep-12 00:00N 49°45' W 000°29'611.7
2019-Sep-11 23:31N 49°39' W 000°27'611.6
2019-Sep-11 23:00N 49°34' W 000°24'611.4
2019-Sep-11 22:31N 49°29' W 000°20'611.4
2019-Sep-11 22:00N 49°24' W 000°17'511.0
2019-Sep-11 21:30N 49°18' W 000°15'1 1.9
2019-Sep-11 21:00N 49°17' W 000°15'0 0.0
2019-Sep-11 20:29N 49°17' W 000°15'0 0.0
2019-Sep-11 19:59N 49°17' W 000°15'0 0.0
2019-Sep-11 19:29N 49°17' W 000°15'0 0.0
2019-Sep-11 18:59N 49°17' W 000°15'0 0.0
2019-Sep-11 18:29N 49°17' W 000°15'0 0.0
2019-Sep-11 17:59N 49°17' W 000°15'0 0.0
2019-Sep-11 17:29N 49°17' W 000°15'0 0.0
2019-Sep-11 16:59N 49°17' W 000°15'0 0.0
2019-Sep-11 16:29N 49°17' W 000°15'0 0.0
2019-Sep-11 15:59N 49°17' W 000°15'0 0.0
2019-Sep-11 15:29N 49°17' W 000°15'0 0.0
2019-Sep-11 15:00N 49°17' W 000°15'0 0.0
2019-Sep-11 14:30N 49°17' W 000°15'0 0.0
2019-Sep-11 14:00N 49°17' W 000°15'0 0.0
2019-Sep-11 13:30N 49°17' W 000°15'0 0.0
2019-Sep-11 13:00N 49°17' W 000°15'4 8.6
2019-Sep-11 12:31N 49°22' W 000°15'918.8
2019-Sep-11 12:00N 49°30' W 000°22'918.7
2019-Sep-11 11:31N 49°39' W 000°25'1019.0
2019-Sep-11 11:00N 49°48' W 000°30'1019.1
2019-Sep-11 10:30N 49°57' W 000°34'1519.5
2019-Sep-11 09:43N 50°12' W 000°41'719.6
2019-Sep-11 09:23N 50°18' W 000°44'1719.6
2019-Sep-11 08:31N 50°34' W 000°55'019.7
2019-Sep-11 08:30N 50°34' W 000°55'918.8
2019-Sep-11 08:01N 50°42' W 001°01'713.7
2019-Sep-11 07:30N 50°48' W 001°07'1 1.6
2019-Sep-11 07:00N 50°49' W 001°06'0 0.0
2019-Sep-11 06:30N 50°49' W 001°06'0 0.0
2019-Sep-11 06:00N 50°49' W 001°06'1 1.1
2019-Sep-11 05:31N 50°49' W 001°07'611.6
2019-Sep-11 05:01N 50°43' W 001°02'814.9
2019-Sep-11 04:30N 50°37' W 000°58'912.7
2019-Sep-11 03:47N 50°28' W 000°53'410.7
2019-Sep-11 03:22N 50°24' W 000°51'610.6
2019-Sep-11 02:46N 50°17' W 000°49'311.0
2019-Sep-11 02:29N 50°14' W 000°49'1311.1
2019-Sep-11 01:21N 50°03' W 000°39'511.2
2019-Sep-11 00:54N 49°58' W 000°37'511.6
2019-Sep-11 00:30N 49°54' W 000°34'  
Track history (hours):
 
Tides and Currents Weather Stations Pressure Air Temp Water Temp Dewpoint Dewpoint Depression Visibility Wind Speed Wind Dir Waves Ship Positions

Normandie

Operator: Brittany Ferries

Last reported at 2019-Sep-21 00:30 UTC. Time now 2019-Sep-21 00:59 UTC.
Position N 49°47' W 000°34'.

Length 161 m; beam 27 m.

Type: Ship. MMSI: 227273000.

Date/timePositionNaut miles runAvg speedWind from/ knotsBaromVisibWave heightAir tempDewpointWater temp
2019-Sep-21 00:30N 49°47' W 000°34'510.1
2019-Sep-21 00:00N 49°43' W 000°30'510.2
2019-Sep-20 23:31N 49°39' W 000°25'510.4
2019-Sep-20 23:00N 49°34' W 000°22'510.4
2019-Sep-20 22:31N 49°29' W 000°19'510.4
2019-Sep-20 22:01N 49°24' W 000°16'510.6
2019-Sep-20 21:31N 49°19' W 000°15'2 3.3
2019-Sep-20 21:01N 49°17' W 000°15'0 0.0
2019-Sep-20 20:31N 49°17' W 000°15'0 0.0
2019-Sep-20 20:01N 49°17' W 000°15'0 0.2
2019-Sep-20 19:31N 49°17' W 000°15'612.1
2019-Sep-20 19:01N 49°23' W 000°12'713.7
2019-Sep-20 18:31N 49°29' W 000°18'919.0
2019-Sep-20 18:01N 49°38' W 000°24'918.8
2019-Sep-20 17:30N 49°46' W 000°29'918.7
2019-Sep-20 17:01N 49°55' W 000°35'918.6
2019-Sep-20 16:31N 50°03' W 000°41'918.3
2019-Sep-20 16:01N 50°12' W 000°46'918.3
2019-Sep-20 15:30N 50°21' W 000°49'1318.8
2019-Sep-20 14:48N 50°33' W 000°56'618.3
2019-Sep-20 14:29N 50°39' W 000°59'817.0
2019-Sep-20 14:01N 50°46' W 001°05'3 5.8
2019-Sep-20 13:30N 50°49' W 001°06'0 0.0
2019-Sep-20 13:00N 50°49' W 001°06'0 0.0
2019-Sep-20 12:30N 50°49' W 001°06'0 0.2
2019-Sep-20 12:00N 50°49' W 001°06'5 9.7
2019-Sep-20 11:30N 50°44' W 001°04'918.4
2019-Sep-20 11:00N 50°36' W 000°58'2319.2
2019-Sep-20 09:50N 50°15' W 000°43'919.5
2019-Sep-20 09:24N 50°07' W 000°39'819.5
2019-Sep-20 09:00N 49°60' W 000°35'1019.6
2019-Sep-20 08:30N 49°50' W 000°31'1019.8
2019-Sep-20 08:00N 49°41' W 000°26'1019.8
2019-Sep-20 07:30N 49°32' W 000°21'1020.0
2019-Sep-20 07:01N 49°22' W 000°15'510.0
2019-Sep-20 06:31N 49°17' W 000°15'0 0.0
2019-Sep-20 06:01N 49°17' W 000°15'0 0.0
2019-Sep-20 05:31N 49°17' W 000°15'0 0.0
2019-Sep-20 05:01N 49°17' W 000°15'0 0.2
2019-Sep-20 04:31N 49°17' W 000°15'815.3
2019-Sep-20 04:01N 49°25' W 000°15'816.9
2019-Sep-20 03:31N 49°33' W 000°20'815.1
2019-Sep-20 03:00N 49°40' W 000°24'815.1
2019-Sep-20 02:31N 49°47' W 000°29'815.2
2019-Sep-20 02:00N 49°54' W 000°34'1915.1
2019-Sep-20 00:43N 50°11' W 000°47'1014.4
2019-Sep-20 00:02N 50°21' W 000°47'114.4
2019-Sep-19 23:59N 50°22' W 000°47'1115.3
2019-Sep-19 23:16N 50°32' W 000°54'415.3
2019-Sep-19 23:00N 50°35' W 000°57'714.8
2019-Sep-19 22:31N 50°42' W 001°02'713.6
2019-Sep-19 22:00N 50°48' W 001°07'1 1.9
2019-Sep-19 21:30N 50°49' W 001°06'0 0.0
2019-Sep-19 21:00N 50°49' W 001°06'0 0.0
2019-Sep-19 20:30N 50°49' W 001°06'1 2.5
2019-Sep-19 20:00N 50°48' W 001°07'715.0
2019-Sep-19 19:31N 50°42' W 000°58'4319.7
2019-Sep-19 17:20N 50°01' W 000°40'720.4
2019-Sep-19 17:00N 49°55' W 000°36'1020.3
2019-Sep-19 16:30N 49°46' W 000°30'1020.2
2019-Sep-19 16:00N 49°36' W 000°24'1019.8
2019-Sep-19 15:31N 49°27' W 000°18'918.3
2019-Sep-19 15:00N 49°18' W 000°15'1 2.1
2019-Sep-19 14:30N 49°17' W 000°15'0 0.0
2019-Sep-19 14:01N 49°17' W 000°15'0 0.0
2019-Sep-19 13:31N 49°17' W 000°15'0 0.0
2019-Sep-19 13:01N 49°17' W 000°15'3 5.9
2019-Sep-19 12:30N 49°20' W 000°14'917.9
2019-Sep-19 12:01N 49°29' W 000°18'917.9
2019-Sep-19 11:31N 49°37' W 000°23'918.7
2019-Sep-19 11:01N 49°46' W 000°28'1019.1
2019-Sep-19 10:30N 49°55' W 000°34'2219.2
2019-Sep-19 09:22N 50°15' W 000°49'1818.5
2019-Sep-19 08:24N 50°31' W 000°58'718.0
2019-Sep-19 08:00N 50°39' W 000°58'715.0
2019-Sep-19 07:31N 50°45' W 001°05'4 7.8
2019-Sep-19 07:00N 50°49' W 001°06'0 0.0
2019-Sep-19 06:30N 50°49' W 001°06'0 0.0
2019-Sep-19 06:00N 50°49' W 001°06'0 0.2
2019-Sep-19 05:30N 50°49' W 001°06'5 9.8
2019-Sep-19 05:00N 50°44' W 001°04'714.4
2019-Sep-19 04:30N 50°38' W 000°58'815.2
2019-Sep-19 04:00N 50°30' W 000°55'3612.7
2019-Sep-19 01:10N 49°57' W 000°35'210.6
2019-Sep-19 00:58N 49°55' W 000°34'510.5
2019-Sep-19 00:30N 49°50' W 000°30'510.4
2019-Sep-19 00:00N 49°46' W 000°27'510.4
2019-Sep-18 23:30N 49°41' W 000°24'510.5
2019-Sep-18 23:00N 49°36' W 000°21'510.6
2019-Sep-18 22:31N 49°31' W 000°20'510.2
2019-Sep-18 22:01N 49°26' W 000°17'510.0
2019-Sep-18 21:31N 49°21' W 000°15'4 7.6
2019-Sep-18 21:00N 49°17' W 000°15'0 0.0
2019-Sep-18 20:30N 49°17' W 000°15'0 0.0
2019-Sep-18 20:00N 49°17' W 000°15'0 0.0
2019-Sep-18 19:30N 49°17' W 000°15'0 0.0
2019-Sep-18 19:00N 49°17' W 000°15'0 0.0
2019-Sep-18 18:30N 49°17' W 000°15'0 0.0
2019-Sep-18 18:00N 49°17' W 000°15'0 0.0
2019-Sep-18 17:30N 49°17' W 000°15'0 0.0
2019-Sep-18 17:00N 49°17' W 000°15'0 0.0
2019-Sep-18 16:30N 49°17' W 000°15'0 0.0
2019-Sep-18 16:01N 49°17' W 000°15'0 0.0
2019-Sep-18 15:30N 49°17' W 000°15'0 0.0
2019-Sep-18 15:00N 49°17' W 000°15'0 0.0
2019-Sep-18 14:30N 49°17' W 000°15'0 0.0
2019-Sep-18 14:00N 49°17' W 000°15'0 0.0
2019-Sep-18 13:30N 49°17' W 000°15'0 0.0
2019-Sep-18 13:00N 49°17' W 000°15'4 7.3
2019-Sep-18 12:31N 49°21' W 000°15'917.5
2019-Sep-18 12:01N 49°30' W 000°16'917.5
2019-Sep-18 11:31N 49°37' W 000°23'918.7
2019-Sep-18 11:01N 49°46' W 000°28'1019.8
2019-Sep-18 10:30N 49°56' W 000°33'2020.0
2019-Sep-18 09:32N 50°14' W 000°43'119.7
2019-Sep-18 09:30N 50°14' W 000°44'1920.0
2019-Sep-18 08:34N 50°32' W 000°54'120.2
2019-Sep-18 08:30N 50°33' W 000°55'918.5
2019-Sep-18 08:00N 50°42' W 000°58'815.1
2019-Sep-18 07:30N 50°47' W 001°07'1 2.8
2019-Sep-18 07:00N 50°49' W 001°06'0 0.0
2019-Sep-18 06:30N 50°49' W 001°06'0 0.0
2019-Sep-18 06:00N 50°49' W 001°06'0 0.3
2019-Sep-18 05:31N 50°49' W 001°06'510.3
2019-Sep-18 05:00N 50°44' W 001°03'714.0
2019-Sep-18 04:31N 50°38' W 000°58'815.0
2019-Sep-18 04:00N 50°31' W 000°54'1115.0
2019-Sep-18 03:18N 50°21' W 000°48'1313.7
2019-Sep-18 02:22N 50°08' W 000°45'1011.8
2019-Sep-18 01:31N 49°59' W 000°39'012.0
2019-Sep-18 01:30N 49°59' W 000°39'510.9
2019-Sep-18 01:00N 49°54' W 000°35'510.6
2019-Sep-18 00:30N 49°49' W 000°31'510.4
2019-Sep-18 00:00N 49°44' W 000°28'510.4
2019-Sep-17 23:30N 49°40' W 000°24'510.4
2019-Sep-17 23:00N 49°35' W 000°21'510.1
2019-Sep-17 22:30N 49°30' W 000°18'510.6
2019-Sep-17 22:00N 49°25' W 000°16'510.2
2019-Sep-17 21:30N 49°20' W 000°15'3 5.8
2019-Sep-17 21:00N 49°17' W 000°15'0 0.0
2019-Sep-17 20:30N 49°17' W 000°15'0 0.0
2019-Sep-17 20:00N 49°17' W 000°15'0 0.0
2019-Sep-17 19:30N 49°17' W 000°15'4 7.2
2019-Sep-17 19:00N 49°21' W 000°14'917.5
2019-Sep-17 18:30N 49°29' W 000°17'917.6
2019-Sep-17 18:00N 49°38' W 000°22'918.5
2019-Sep-17 17:30N 49°47' W 000°25'1518.2
2019-Sep-17 16:42N 50°00' W 000°33'3318.2
2019-Sep-17 14:54N 50°31' W 000°53'818.4
2019-Sep-17 14:30N 50°38' W 000°58'817.2
2019-Sep-17 14:00N 50°45' W 001°05'4 8.0
2019-Sep-17 13:31N 50°49' W 001°06'0 0.0
2019-Sep-17 13:01N 50°49' W 001°06'0 0.0
2019-Sep-17 12:31N 50°49' W 001°06'1 1.8
2019-Sep-17 12:00N 50°48' W 001°07'816.1
2019-Sep-17 11:30N 50°41' W 001°00'1019.6
2019-Sep-17 11:00N 50°32' W 000°56'1019.2
2019-Sep-17 10:29N 50°22' W 000°52'1719.1
2019-Sep-17 09:36N 50°06' W 000°45'918.1
2019-Sep-17 09:07N 49°58' W 000°40'217.9
2019-Sep-17 08:59N 49°56' W 000°39'917.8
2019-Sep-17 08:30N 49°48' W 000°32'918.1
2019-Sep-17 08:00N 49°40' W 000°25'918.5
2019-Sep-17 07:30N 49°32' W 000°18'918.6
2019-Sep-17 07:00N 49°23' W 000°17'611.6
2019-Sep-17 06:30N 49°17' W 000°15'0 0.0
2019-Sep-17 06:00N 49°17' W 000°15'0 0.0
2019-Sep-17 05:30N 49°17' W 000°15'0 0.0
2019-Sep-17 05:00N 49°17' W 000°15'0 0.3
2019-Sep-17 04:31N 49°17' W 000°15'713.5
2019-Sep-17 04:01N 49°24' W 000°16'815.2
2019-Sep-17 03:31N 49°30' W 000°22'714.9
2019-Sep-17 03:01N 49°37' W 000°27'714.4
2019-Sep-17 02:30N 49°43' W 000°32'714.6
2019-Sep-17 02:01N 49°50' W 000°36'815.1
2019-Sep-17 01:28N 49°58' W 000°40'715.5
2019-Sep-17 01:00N 50°05' W 000°43'815.7
2019-Sep-17 00:30N 50°12' W 000°46'2115.9
2019-Sep-16 23:12N 50°32' W 000°56'315.6
2019-Sep-16 23:01N 50°35' W 000°57'815.0
2019-Sep-16 22:31N 50°42' W 001°01'713.3
2019-Sep-16 22:00N 50°48' W 001°07'1 2.2
2019-Sep-16 21:30N 50°49' W 001°06'0 0.0
2019-Sep-16 21:00N 50°49' W 001°06'0 0.0
2019-Sep-16 20:30N 50°49' W 001°06'1 2.2
2019-Sep-16 20:00N 50°48' W 001°07'714.3
2019-Sep-16 19:31N 50°43' W 000°59'1119.1
2019-Sep-16 18:56N 50°32' W 000°59'819.5
2019-Sep-16 18:30N 50°24' W 000°56'1018.5
2019-Sep-16 17:59N 50°15' W 000°49'918.7
2019-Sep-16 17:30N 50°07' W 000°43'1019.0
2019-Sep-16 16:58N 49°57' W 000°37'919.0
2019-Sep-16 16:30N 49°49' W 000°32'1019.2
2019-Sep-16 16:01N 49°40' W 000°27'1019.0
2019-Sep-16 15:30N 49°32' W 000°20'1019.1
2019-Sep-16 15:01N 49°23' W 000°16'510.8
2019-Sep-16 14:30N 49°17' W 000°15'0 0.0
2019-Sep-16 14:00N 49°17' W 000°15'0 0.0
2019-Sep-16 13:30N 49°17' W 000°15'0 0.0
2019-Sep-16 13:00N 49°17' W 000°15'3 6.8
2019-Sep-16 12:30N 49°21' W 000°14'918.6
2019-Sep-16 12:00N 49°29' W 000°20'918.7
2019-Sep-16 11:30N 49°38' W 000°25'919.0
2019-Sep-16 11:00N 49°47' W 000°31'1019.4
2019-Sep-16 10:30N 49°55' W 000°39'1019.4
2019-Sep-16 10:00N 50°04' W 000°45'1019.4
2019-Sep-16 09:30N 50°13' W 000°50'2018.8
2019-Sep-16 08:25N 50°33' W 000°57'818.6
2019-Sep-16 08:00N 50°40' W 001°01'816.1
2019-Sep-16 07:30N 50°47' W 001°07'1 2.6
2019-Sep-16 07:01N 50°49' W 001°06'0 0.0
2019-Sep-16 06:31N 50°49' W 001°06'0 0.0
2019-Sep-16 06:00N 50°49' W 001°06'1 1.9
2019-Sep-16 05:31N 50°48' W 001°07'612.6
2019-Sep-16 05:00N 50°43' W 001°01'713.9
2019-Sep-16 04:30N 50°36' W 000°58'714.3
2019-Sep-16 04:00N 50°30' W 000°54'611.3
2019-Sep-16 03:30N 50°24' W 000°51'611.2
2019-Sep-16 03:00N 50°19' W 000°48'611.5
2019-Sep-16 02:30N 50°13' W 000°46'612.2
2019-Sep-16 02:00N 50°08' W 000°42'612.0
2019-Sep-16 01:30N 50°02' W 000°38'611.2
2019-Sep-16 01:00N 49°57' W 000°35'511.0
2019-Sep-16 00:30N 49°52' W 000°32'510.9
2019-Sep-16 00:00N 49°47' W 000°29'510.6
2019-Sep-15 23:30N 49°42' W 000°27'510.3
2019-Sep-15 23:00N 49°37' W 000°24'510.2
2019-Sep-15 22:30N 49°32' W 000°20'510.2
2019-Sep-15 22:00N 49°28' W 000°18'510.2
2019-Sep-15 21:30N 49°23' W 000°16'5 9.9
2019-Sep-15 21:00N 49°18' W 000°15'0 0.8
2019-Sep-15 20:30N 49°17' W 000°15'0 0.0
2019-Sep-15 20:00N 49°17' W 000°15'0 0.0
2019-Sep-15 19:30N 49°17' W 000°15'510.1
2019-Sep-15 19:00N 49°22' W 000°15'1020.0
2019-Sep-15 18:30N 49°31' W 000°23'1020.1
2019-Sep-15 18:00N 49°40' W 000°30'1019.9
2019-Sep-15 17:30N 49°49' W 000°35'1019.6
2019-Sep-15 17:00N 49°59' W 000°39'1019.8
2019-Sep-15 16:30N 50°09' W 000°40'917.4
2019-Sep-15 16:00N 50°16' W 000°46'918.2
2019-Sep-15 15:30N 50°25' W 000°52'918.0
2019-Sep-15 15:00N 50°33' W 000°56'917.6
2019-Sep-15 14:30N 50°42' W 001°02'714.5
2019-Sep-15 14:00N 50°48' W 001°07'1 2.0
2019-Sep-15 13:30N 50°49' W 001°06'0 0.0
2019-Sep-15 13:00N 50°49' W 001°06'0 0.0
2019-Sep-15 12:30N 50°49' W 001°06'2 3.0
2019-Sep-15 12:00N 50°47' W 001°06'917.6
2019-Sep-15 11:31N 50°40' W 000°59'1019.8
2019-Sep-15 11:00N 50°30' W 000°54'1019.5
2019-Sep-15 10:30N 50°21' W 000°49'1019.7
2019-Sep-15 10:00N 50°12' W 000°46'1019.5
2019-Sep-15 09:30N 50°02' W 000°43'918.8
2019-Sep-15 09:00N 49°53' W 000°40'918.3
2019-Sep-15 08:30N 49°44' W 000°35'918.3
2019-Sep-15 08:00N 49°36' W 000°28'918.3
2019-Sep-15 07:30N 49°28' W 000°21'917.8
2019-Sep-15 07:00N 49°20' W 000°15'3 6.3
2019-Sep-15 06:30N 49°17' W 000°15'0 0.0
2019-Sep-15 06:00N 49°17' W 000°15'0 0.0
2019-Sep-15 05:30N 49°17' W 000°15'0 0.0
2019-Sep-15 05:00N 49°17' W 000°15'0 0.1
2019-Sep-15 04:30N 49°17' W 000°15'714.0
2019-Sep-15 04:00N 49°24' W 000°16'816.7
2019-Sep-15 03:30N 49°32' W 000°22'816.7
2019-Sep-15 03:00N 49°39' W 000°28'816.5
2019-Sep-15 02:30N 49°46' W 000°33'816.1
2019-Sep-15 02:00N 49°54' W 000°39'816.1
2019-Sep-15 01:30N 50°01' W 000°45'816.4
2019-Sep-15 01:00N 50°08' W 000°52'714.9
2019-Sep-15 00:30N 50°15' W 000°52'815.8
2019-Sep-15 00:00N 50°23' W 000°52'815.9
2019-Sep-14 23:30N 50°31' W 000°55'815.6
2019-Sep-14 23:01N 50°38' W 000°58'714.7
2019-Sep-14 22:30N 50°45' W 001°05'4 8.5
2019-Sep-14 22:01N 50°49' W 001°06'0 0.0
2019-Sep-14 21:31N 50°49' W 001°06'0 0.0
2019-Sep-14 21:01N 50°49' W 001°06'0 0.1
2019-Sep-14 20:30N 50°49' W 001°06'4 8.0
2019-Sep-14 20:01N 50°45' W 001°05'917.4
2019-Sep-14 19:31N 50°37' W 000°58'919.0
2019-Sep-14 19:01N 50°28' W 000°54'1019.1
2019-Sep-14 18:30N 50°19' W 000°52'917.7
2019-Sep-14 18:01N 50°10' W 000°50'918.3
2019-Sep-14 17:31N 50°01' W 000°45'918.5
2019-Sep-14 17:01N 49°52' W 000°40'918.6
2019-Sep-14 16:31N 49°44' W 000°35'918.7
2019-Sep-14 16:01N 49°36' W 000°28'918.8
2019-Sep-14 15:30N 49°28' W 000°20'917.9
2019-Sep-14 15:01N 49°20' W 000°15'2 4.4
2019-Sep-14 14:30N 49°17' W 000°15'0 0.0
2019-Sep-14 14:00N 49°17' W 000°15'0 0.0
2019-Sep-14 13:30N 49°17' W 000°15'0 0.0
2019-Sep-14 13:00N 49°17' W 000°15'3 5.7
2019-Sep-14 12:31N 49°20' W 000°14'918.5
2019-Sep-14 12:01N 49°29' W 000°20'1019.2
2019-Sep-14 11:31N 49°38' W 000°24'1019.3
2019-Sep-14 11:00N 49°47' W 000°31'1019.7
2019-Sep-14 10:30N 49°56' W 000°38'1119.9
2019-Sep-14 09:59N 50°05' W 000°44'1019.8
2019-Sep-14 09:30N 50°14' W 000°49'1119.5
2019-Sep-14 08:56N 50°25' W 000°54'919.7
2019-Sep-14 08:29N 50°33' W 000°57'918.3
2019-Sep-14 08:01N 50°42' W 000°58'815.8
2019-Sep-14 07:30N 50°48' W 001°07'1 2.3
2019-Sep-14 07:01N 50°49' W 001°06'0 0.0
2019-Sep-14 06:31N 50°49' W 001°06'0 0.0
2019-Sep-14 06:01N 50°49' W 001°06'0 0.4
2019-Sep-14 05:31N 50°49' W 001°06'510.8
2019-Sep-14 05:01N 50°44' W 001°03'713.4
2019-Sep-14 04:31N 50°38' W 000°58'815.1
2019-Sep-14 04:00N 50°31' W 000°55'1613.3
2019-Sep-14 02:46N 50°15' W 000°47'311.8
2019-Sep-14 02:29N 50°12' W 000°45'611.7
2019-Sep-14 01:58N 50°06' W 000°43'611.8
2019-Sep-14 01:30N 50°01' W 000°39'611.7
2019-Sep-14 01:00N 49°55' W 000°36'611.6
2019-Sep-14 00:31N 49°50' W 000°32'510.8
2019-Sep-14 00:00N 49°45' W 000°30'511.0
2019-Sep-13 23:31N 49°40' W 000°28'510.6
2019-Sep-13 23:01N 49°35' W 000°25'510.6
2019-Sep-13 22:30N 49°30' W 000°21'510.6
2019-Sep-13 22:01N 49°25' W 000°18'510.5
2019-Sep-13 21:31N 49°20' W 000°14'3 6.1
2019-Sep-13 21:00N 49°17' W 000°15'0 0.0
2019-Sep-13 20:30N 49°17' W 000°15'0 0.0
2019-Sep-13 20:00N 49°17' W 000°15'0 0.0
2019-Sep-13 19:30N 49°17' W 000°15'4 7.0
2019-Sep-13 19:00N 49°21' W 000°14'918.5
2019-Sep-13 18:30N 49°29' W 000°20'918.7
2019-Sep-13 18:00N 49°37' W 000°27'918.5
2019-Sep-13 17:30N 49°46' W 000°32'1018.0
2019-Sep-13 16:59N 49°55' W 000°38'1017.7
2019-Sep-13 16:25N 50°04' W 000°43'717.6
2019-Sep-13 16:01N 50°11' W 000°47'917.7
2019-Sep-13 15:28N 50°20' W 000°52'1017.8
2019-Sep-13 14:56N 50°29' W 000°57'817.8
2019-Sep-13 14:30N 50°37' W 000°58'917.0
2019-Sep-13 14:00N 50°44' W 001°04'5 9.1
2019-Sep-13 13:30N 50°49' W 001°06'0 0.0
2019-Sep-13 13:00N 50°49' W 001°06'0 0.0
2019-Sep-13 12:30N 50°49' W 001°06'0 0.9
2019-Sep-13 12:01N 50°49' W 001°07'510.7
2019-Sep-13 11:31N 50°44' W 001°03'1019.0
2019-Sep-13 11:00N 50°35' W 000°58'1019.5
2019-Sep-13 10:30N 50°25' W 000°55'1819.4
2019-Sep-13 09:35N 50°08' W 000°49'219.1
2019-Sep-13 09:30N 50°06' W 000°48'918.9
2019-Sep-13 09:00N 49°58' W 000°42'918.9
2019-Sep-13 08:30N 49°49' W 000°37'918.7
2019-Sep-13 08:00N 49°40' W 000°31'918.8
2019-Sep-13 07:30N 49°32' W 000°24'918.6
2019-Sep-13 07:00N 49°24' W 000°17'713.4
2019-Sep-13 06:30N 49°17' W 000°15'0 0.0
2019-Sep-13 06:00N 49°17' W 000°15'0 0.0
2019-Sep-13 05:30N 49°17' W 000°15'0 0.0
2019-Sep-13 05:00N 49°17' W 000°15'0 0.2
2019-Sep-13 04:30N 49°17' W 000°15'713.5
2019-Sep-13 04:00N 49°24' W 000°16'816.0
2019-Sep-13 03:30N 49°31' W 000°21'816.6
2019-Sep-13 03:00N 49°39' W 000°25'816.5
2019-Sep-13 02:30N 49°47' W 000°30'2315.8
2019-Sep-13 01:04N 50°08' W 000°42'1315.0
2019-Sep-13 00:10N 50°21' W 000°49'1115.3
2019-Sep-12 23:27N 50°31' W 000°55'715.2
2019-Sep-12 23:00N 50°38' W 000°58'714.8
2019-Sep-12 22:30N 50°44' W 001°04'5 9.7
2019-Sep-12 22:01N 50°49' W 001°06'0 0.1
2019-Sep-12 21:31N 50°49' W 001°06'0 0.0
2019-Sep-12 21:01N 50°49' W 001°06'0 0.2
2019-Sep-12 20:31N 50°49' W 001°06'5 9.5
2019-Sep-12 20:01N 50°44' W 001°04'918.4
2019-Sep-12 19:31N 50°36' W 000°56'918.4
2019-Sep-12 19:01N 50°28' W 000°50'1719.1
2019-Sep-12 18:08N 50°12' W 000°42'318.8
2019-Sep-12 18:00N 50°10' W 000°41'1019.1
2019-Sep-12 17:30N 50°01' W 000°36'919.1
2019-Sep-12 17:01N 49°52' W 000°31'1019.3
2019-Sep-12 16:31N 49°43' W 000°26'1019.4
2019-Sep-12 16:01N 49°34' W 000°21'1019.5
2019-Sep-12 15:31N 49°24' W 000°17'714.0
2019-Sep-12 15:00N 49°17' W 000°15'0 0.1
2019-Sep-12 14:30N 49°17' W 000°15'0 0.0
2019-Sep-12 14:00N 49°17' W 000°15'0 0.0
2019-Sep-12 13:30N 49°17' W 000°15'0 0.0
2019-Sep-12 13:00N 49°17' W 000°15'3 5.9
2019-Sep-12 12:31N 49°20' W 000°14'918.5
2019-Sep-12 12:00N 49°29' W 000°19'1019.0
2019-Sep-12 11:30N 49°38' W 000°25'919.1
2019-Sep-12 11:01N 49°47' W 000°30'1019.5
2019-Sep-12 10:30N 49°56' W 000°35'1019.8
2019-Sep-12 10:00N 50°05' W 000°41'1519.3
2019-Sep-12 09:15N 50°19' W 000°46'1019.8
2019-Sep-12 08:46N 50°28' W 000°52'519.9
2019-Sep-12 08:30N 50°33' W 000°55'918.8
2019-Sep-12 08:01N 50°41' W 001°00'815.3
2019-Sep-12 07:31N 50°48' W 001°07'1 2.0
2019-Sep-12 07:01N 50°49' W 001°06'0 0.0
2019-Sep-12 06:31N 50°49' W 001°06'0 0.0
2019-Sep-12 06:01N 50°49' W 001°06'0 0.8
2019-Sep-12 05:31N 50°49' W 001°06'611.9
2019-Sep-12 05:00N 50°44' W 001°02'714.4
2019-Sep-12 04:30N 50°37' W 000°58'815.1
2019-Sep-12 04:00N 50°29' W 000°55'714.3
2019-Sep-12 03:30N 50°23' W 000°51'1211.1
2019-Sep-12 02:26N 50°11' W 000°46'811.4
2019-Sep-12 01:45N 50°04' W 000°42'311.6
2019-Sep-12 01:30N 50°01' W 000°40'611.9
2019-Sep-12 01:00N 49°56' W 000°36'611.8
2019-Sep-12 00:30N 49°51' W 000°31'611.8
2019-Sep-12 00:00N 49°45' W 000°29'611.7
2019-Sep-11 23:31N 49°39' W 000°27'611.6
2019-Sep-11 23:00N 49°34' W 000°24'611.4
2019-Sep-11 22:31N 49°29' W 000°20'611.4
2019-Sep-11 22:00N 49°24' W 000°17'511.0
2019-Sep-11 21:30N 49°18' W 000°15'1 1.9
2019-Sep-11 21:00N 49°17' W 000°15'0 0.0
2019-Sep-11 20:29N 49°17' W 000°15'0 0.0
2019-Sep-11 19:59N 49°17' W 000°15'0 0.0
2019-Sep-11 19:29N 49°17' W 000°15'0 0.0
2019-Sep-11 18:59N 49°17' W 000°15'0 0.0
2019-Sep-11 18:29N 49°17' W 000°15'0 0.0
2019-Sep-11 17:59N 49°17' W 000°15'0 0.0
2019-Sep-11 17:29N 49°17' W 000°15'0 0.0
2019-Sep-11 16:59N 49°17' W 000°15'0 0.0
2019-Sep-11 16:29N 49°17' W 000°15'0 0.0
2019-Sep-11 15:59N 49°17' W 000°15'0 0.0
2019-Sep-11 15:29N 49°17' W 000°15'0 0.0
2019-Sep-11 15:00N 49°17' W 000°15'0 0.0
2019-Sep-11 14:30N 49°17' W 000°15'0 0.0
2019-Sep-11 14:00N 49°17' W 000°15'0 0.0
2019-Sep-11 13:30N 49°17' W 000°15'0 0.0
2019-Sep-11 13:00N 49°17' W 000°15'4 8.6
2019-Sep-11 12:31N 49°22' W 000°15'918.8
2019-Sep-11 12:00N 49°30' W 000°22'918.7
2019-Sep-11 11:31N 49°39' W 000°25'1019.0
2019-Sep-11 11:00N 49°48' W 000°30'1019.1
2019-Sep-11 10:30N 49°57' W 000°34'1519.5
2019-Sep-11 09:43N 50°12' W 000°41'719.6
2019-Sep-11 09:23N 50°18' W 000°44'1719.6
2019-Sep-11 08:31N 50°34' W 000°55'019.7
2019-Sep-11 08:30N 50°34' W 000°55'918.8
2019-Sep-11 08:01N 50°42' W 001°01'713.7
2019-Sep-11 07:30N 50°48' W 001°07'1 1.6
2019-Sep-11 07:00N 50°49' W 001°06'0 0.0
2019-Sep-11 06:30N 50°49' W 001°06'0 0.0
2019-Sep-11 06:00N 50°49' W 001°06'1 1.1
2019-Sep-11 05:31N 50°49' W 001°07'611.6
2019-Sep-11 05:01N 50°43' W 001°02'814.9
2019-Sep-11 04:30N 50°37' W 000°58'912.7
2019-Sep-11 03:47N 50°28' W 000°53'410.7
2019-Sep-11 03:22N 50°24' W 000°51'610.6
2019-Sep-11 02:46N 50°17' W 000°49'311.0
2019-Sep-11 02:29N 50°14' W 000°49'1311.1
2019-Sep-11 01:21N 50°03' W 000°39'511.2
2019-Sep-11 00:54N 49°58' W 000°37'511.6
2019-Sep-11 00:30N 49°54' W 000°34'  

Dump ship's entire track history